sensor_id;sensor_type;location;lat;lon;timestamp;P1;durP1;ratioP1;P2;durP2;ratioP2
11319;SDS011;5715;48.234;14.320;2023-06-10T00:00:43;3.97;;;3.40;;
11319;SDS011;5715;48.234;14.320;2023-06-10T00:03:31;3.53;;;3.25;;
11319;SDS011;5715;48.234;14.320;2023-06-10T00:06:20;4.68;;;3.53;;
11319;SDS011;5715;48.234;14.320;2023-06-10T00:09:11;5.22;;;3.88;;
11319;SDS011;5715;48.234;14.320;2023-06-10T00:12:00;6.53;;;4.35;;
11319;SDS011;5715;48.234;14.320;2023-06-10T00:14:48;6.20;;;4.18;;
11319;SDS011;5715;48.234;14.320;2023-06-10T00:17:40;4.07;;;3.67;;
11319;SDS011;5715;48.234;14.320;2023-06-10T00:20:29;4.72;;;3.25;;
11319;SDS011;5715;48.234;14.320;2023-06-10T00:23:18;3.53;;;3.22;;
11319;SDS011;5715;48.234;14.320;2023-06-10T00:26:06;5.00;;;3.30;;
11319;SDS011;5715;48.234;14.320;2023-06-10T00:28:53;6.43;;;3.10;;
11319;SDS011;5715;48.234;14.320;2023-06-10T00:31:41;4.78;;;3.58;;
11319;SDS011;5715;48.234;14.320;2023-06-10T00:34:29;7.07;;;3.95;;
11319;SDS011;5715;48.234;14.320;2023-06-10T00:37:16;4.20;;;3.33;;
11319;SDS011;5715;48.234;14.320;2023-06-10T00:40:04;4.00;;;3.38;;
11319;SDS011;5715;48.234;14.320;2023-06-10T00:42:56;5.10;;;3.50;;
11319;SDS011;5715;48.234;14.320;2023-06-10T00:45:43;4.68;;;3.90;;
11319;SDS011;5715;48.234;14.320;2023-06-10T00:48:31;11.80;;;3.92;;
11319;SDS011;5715;48.234;14.320;2023-06-10T00:51:20;3.85;;;3.20;;
11319;SDS011;5715;48.234;14.320;2023-06-10T00:54:09;3.63;;;3.30;;
11319;SDS011;5715;48.234;14.320;2023-06-10T00:57:00;11.57;;;4.22;;
11319;SDS011;5715;48.234;14.320;2023-06-10T00:59:48;3.80;;;3.33;;
11319;SDS011;5715;48.234;14.320;2023-06-10T01:02:36;5.63;;;4.23;;
11319;SDS011;5715;48.234;14.320;2023-06-10T01:05:24;5.55;;;3.00;;
11319;SDS011;5715;48.234;14.320;2023-06-10T01:08:20;4.93;;;3.75;;
11319;SDS011;5715;48.234;14.320;2023-06-10T01:11:43;4.20;;;3.40;;
11319;SDS011;5715;48.234;14.320;2023-06-10T01:14:44;5.43;;;4.25;;
11319;SDS011;5715;48.234;14.320;2023-06-10T01:17:33;3.53;;;2.95;;
11319;SDS011;5715;48.234;14.320;2023-06-10T01:20:23;4.40;;;3.63;;
11319;SDS011;5715;48.234;14.320;2023-06-10T01:23:16;5.27;;;3.27;;
11319;SDS011;5715;48.234;14.320;2023-06-10T01:26:05;5.93;;;3.73;;
11319;SDS011;5715;48.234;14.320;2023-06-10T01:29:07;6.47;;;4.78;;
11319;SDS011;5715;48.234;14.320;2023-06-10T01:32:08;3.53;;;2.97;;
11319;SDS011;5715;48.234;14.320;2023-06-10T01:35:05;5.00;;;4.33;;
11319;SDS011;5715;48.234;14.320;2023-06-10T01:37:55;15.25;;;3.95;;
11319;SDS011;5715;48.234;14.320;2023-06-10T01:40:47;4.65;;;3.63;;
11319;SDS011;5715;48.234;14.320;2023-06-10T01:43:37;6.10;;;4.13;;
11319;SDS011;5715;48.234;14.320;2023-06-10T01:46:26;4.43;;;3.47;;
11319;SDS011;5715;48.234;14.320;2023-06-10T01:49:14;9.15;;;3.47;;
11319;SDS011;5715;48.234;14.320;2023-06-10T01:52:01;4.13;;;3.77;;
11319;SDS011;5715;48.234;14.320;2023-06-10T01:54:49;6.05;;;3.83;;
11319;SDS011;5715;48.234;14.320;2023-06-10T01:57:37;9.57;;;4.27;;
11319;SDS011;5715;48.234;14.320;2023-06-10T02:00:24;4.97;;;3.87;;
11319;SDS011;5715;48.234;14.320;2023-06-10T02:03:12;5.27;;;4.10;;
11319;SDS011;5715;48.234;14.320;2023-06-10T02:06:03;4.23;;;3.50;;
11319;SDS011;5715;48.234;14.320;2023-06-10T02:08:51;4.40;;;3.75;;
11319;SDS011;5715;48.234;14.320;2023-06-10T02:11:38;6.20;;;4.93;;
11319;SDS011;5715;48.234;14.320;2023-06-10T02:14:26;6.35;;;3.55;;
11319;SDS011;5715;48.234;14.320;2023-06-10T02:17:14;5.55;;;4.20;;
11319;SDS011;5715;48.234;14.320;2023-06-10T02:20:01;9.20;;;4.90;;
11319;SDS011;5715;48.234;14.320;2023-06-10T02:22:50;6.35;;;4.32;;
11319;SDS011;5715;48.234;14.320;2023-06-10T02:25:38;4.50;;;3.75;;
11319;SDS011;5715;48.234;14.320;2023-06-10T02:28:26;5.63;;;3.65;;
11319;SDS011;5715;48.234;14.320;2023-06-10T02:31:14;6.80;;;5.50;;
11319;SDS011;5715;48.234;14.320;2023-06-10T02:34:05;4.75;;;3.95;;
11319;SDS011;5715;48.234;14.320;2023-06-10T02:36:52;8.48;;;4.13;;
11319;SDS011;5715;48.234;14.320;2023-06-10T02:39:40;4.85;;;3.72;;
11319;SDS011;5715;48.234;14.320;2023-06-10T02:42:28;4.13;;;3.40;;
11319;SDS011;5715;48.234;14.320;2023-06-10T02:45:15;6.30;;;4.07;;
11319;SDS011;5715;48.234;14.320;2023-06-10T02:48:03;5.43;;;3.70;;
11319;SDS011;5715;48.234;14.320;2023-06-10T02:50:51;7.03;;;4.83;;
11319;SDS011;5715;48.234;14.320;2023-06-10T02:53:39;4.40;;;3.50;;
11319;SDS011;5715;48.234;14.320;2023-06-10T02:56:26;3.38;;;3.08;;
11319;SDS011;5715;48.234;14.320;2023-06-10T02:59:14;4.63;;;3.97;;
11319;SDS011;5715;48.234;14.320;2023-06-10T03:02:02;7.50;;;3.60;;
11319;SDS011;5715;48.234;14.320;2023-06-10T03:04:50;3.73;;;3.30;;
11319;SDS011;5715;48.234;14.320;2023-06-10T03:07:39;9.07;;;4.40;;
11319;SDS011;5715;48.234;14.320;2023-06-10T03:10:27;6.03;;;4.07;;
11319;SDS011;5715;48.234;14.320;2023-06-10T03:13:15;4.63;;;3.30;;
11319;SDS011;5715;48.234;14.320;2023-06-10T03:16:03;4.97;;;3.57;;
11319;SDS011;5715;48.234;14.320;2023-06-10T03:18:51;4.03;;;2.95;;
11319;SDS011;5715;48.234;14.320;2023-06-10T03:21:43;5.20;;;3.63;;
11319;SDS011;5715;48.234;14.320;2023-06-10T03:24:31;7.37;;;4.53;;
11319;SDS011;5715;48.234;14.320;2023-06-10T03:27:19;6.32;;;3.85;;
11319;SDS011;5715;48.234;14.320;2023-06-10T03:30:07;4.65;;;3.60;;
11319;SDS011;5715;48.234;14.320;2023-06-10T03:32:55;6.27;;;4.20;;
11319;SDS011;5715;48.234;14.320;2023-06-10T03:35:43;7.82;;;4.20;;
11319;SDS011;5715;48.234;14.320;2023-06-10T03:38:30;6.68;;;4.32;;
11319;SDS011;5715;48.234;14.320;2023-06-10T03:41:18;10.25;;;3.55;;
11319;SDS011;5715;48.234;14.320;2023-06-10T03:44:05;8.10;;;4.82;;
11319;SDS011;5715;48.234;14.320;2023-06-10T03:46:54;4.13;;;3.10;;
11319;SDS011;5715;48.234;14.320;2023-06-10T03:49:43;4.22;;;2.97;;
11319;SDS011;5715;48.234;14.320;2023-06-10T03:52:30;8.10;;;4.55;;
11319;SDS011;5715;48.234;14.320;2023-06-10T03:55:18;5.80;;;4.30;;
11319;SDS011;5715;48.234;14.320;2023-06-10T03:58:08;4.63;;;3.60;;
11319;SDS011;5715;48.234;14.320;2023-06-10T04:01:01;7.47;;;3.90;;
11319;SDS011;5715;48.234;14.320;2023-06-10T04:03:49;6.00;;;4.47;;
11319;SDS011;5715;48.234;14.320;2023-06-10T04:06:38;7.72;;;4.20;;
11319;SDS011;5715;48.234;14.320;2023-06-10T04:09:25;6.55;;;3.47;;
11319;SDS011;5715;48.234;14.320;2023-06-10T04:12:13;6.57;;;4.20;;
11319;SDS011;5715;48.234;14.320;2023-06-10T04:15:01;9.80;;;3.58;;
11319;SDS011;5715;48.234;14.320;2023-06-10T04:17:50;5.20;;;4.43;;
11319;SDS011;5715;48.234;14.320;2023-06-10T04:20:38;8.88;;;3.92;;
11319;SDS011;5715;48.234;14.320;2023-06-10T04:23:25;7.95;;;4.68;;
11319;SDS011;5715;48.234;14.320;2023-06-10T04:26:13;7.28;;;4.72;;
11319;SDS011;5715;48.234;14.320;2023-06-10T04:29:01;5.07;;;4.03;;
11319;SDS011;5715;48.234;14.320;2023-06-10T04:31:48;5.40;;;4.63;;
11319;SDS011;5715;48.234;14.320;2023-06-10T04:34:37;5.10;;;3.63;;
11319;SDS011;5715;48.234;14.320;2023-06-10T04:37:27;5.80;;;4.65;;
11319;SDS011;5715;48.234;14.320;2023-06-10T04:40:15;5.55;;;3.72;;
11319;SDS011;5715;48.234;14.320;2023-06-10T04:43:03;6.18;;;4.60;;
11319;SDS011;5715;48.234;14.320;2023-06-10T04:45:51;15.75;;;4.22;;
11319;SDS011;5715;48.234;14.320;2023-06-10T04:48:38;12.77;;;4.10;;
11319;SDS011;5715;48.234;14.320;2023-06-10T04:51:27;5.43;;;4.75;;
11319;SDS011;5715;48.234;14.320;2023-06-10T04:54:15;5.15;;;4.72;;
11319;SDS011;5715;48.234;14.320;2023-06-10T04:57:02;5.80;;;5.15;;
11319;SDS011;5715;48.234;14.320;2023-06-10T04:59:50;5.60;;;5.05;;
11319;SDS011;5715;48.234;14.320;2023-06-10T05:02:39;6.03;;;5.10;;
11319;SDS011;5715;48.234;14.320;2023-06-10T05:05:27;5.50;;;5.00;;
11319;SDS011;5715;48.234;14.320;2023-06-10T05:08:14;5.43;;;4.90;;
11319;SDS011;5715;48.234;14.320;2023-06-10T05:11:02;4.72;;;4.35;;
11319;SDS011;5715;48.234;14.320;2023-06-10T05:13:50;5.47;;;4.50;;
11319;SDS011;5715;48.234;14.320;2023-06-10T05:16:38;4.20;;;3.40;;
11319;SDS011;5715;48.234;14.320;2023-06-10T05:19:26;5.40;;;3.70;;
11319;SDS011;5715;48.234;14.320;2023-06-10T05:22:14;8.23;;;3.65;;
11319;SDS011;5715;48.234;14.320;2023-06-10T05:25:03;12.00;;;2.70;;
11319;SDS011;5715;48.234;14.320;2023-06-10T05:27:51;4.20;;;2.92;;
11319;SDS011;5715;48.234;14.320;2023-06-10T05:30:38;3.97;;;3.10;;
11319;SDS011;5715;48.234;14.320;2023-06-10T05:33:26;3.80;;;3.40;;
11319;SDS011;5715;48.234;14.320;2023-06-10T05:36:13;3.65;;;2.78;;
11319;SDS011;5715;48.234;14.320;2023-06-10T05:39:01;6.07;;;3.40;;
11319;SDS011;5715;48.234;14.320;2023-06-10T05:41:49;4.22;;;3.10;;
11319;SDS011;5715;48.234;14.320;2023-06-10T05:44:37;4.25;;;3.22;;
11319;SDS011;5715;48.234;14.320;2023-06-10T05:47:24;4.45;;;3.83;;
11319;SDS011;5715;48.234;14.320;2023-06-10T05:50:12;3.70;;;3.03;;
11319;SDS011;5715;48.234;14.320;2023-06-10T05:53:00;3.92;;;3.47;;
11319;SDS011;5715;48.234;14.320;2023-06-10T05:55:47;4.07;;;3.58;;
11319;SDS011;5715;48.234;14.320;2023-06-10T05:58:35;3.58;;;3.25;;
11319;SDS011;5715;48.234;14.320;2023-06-10T06:01:23;5.78;;;3.90;;
11319;SDS011;5715;48.234;14.320;2023-06-10T06:04:10;5.70;;;3.72;;
11319;SDS011;5715;48.234;14.320;2023-06-10T06:06:58;3.70;;;3.40;;
11319;SDS011;5715;48.234;14.320;2023-06-10T06:09:46;4.60;;;4.03;;
11319;SDS011;5715;48.234;14.320;2023-06-10T06:12:34;5.40;;;4.45;;
11319;SDS011;5715;48.234;14.320;2023-06-10T06:15:22;4.70;;;4.00;;
11319;SDS011;5715;48.234;14.320;2023-06-10T06:18:10;4.05;;;3.60;;
11319;SDS011;5715;48.234;14.320;2023-06-10T06:20:57;3.35;;;3.05;;
11319;SDS011;5715;48.234;14.320;2023-06-10T06:23:45;4.10;;;3.30;;
11319;SDS011;5715;48.234;14.320;2023-06-10T06:26:32;5.68;;;3.22;;
11319;SDS011;5715;48.234;14.320;2023-06-10T06:29:20;4.07;;;3.53;;
11319;SDS011;5715;48.234;14.320;2023-06-10T06:32:08;3.78;;;3.38;;
11319;SDS011;5715;48.234;14.320;2023-06-10T06:34:56;5.82;;;3.42;;
11319;SDS011;5715;48.234;14.320;2023-06-10T06:37:43;4.10;;;3.70;;
11319;SDS011;5715;48.234;14.320;2023-06-10T06:40:31;4.63;;;3.92;;
11319;SDS011;5715;48.234;14.320;2023-06-10T06:43:19;4.32;;;3.92;;
11319;SDS011;5715;48.234;14.320;2023-06-10T06:46:06;4.82;;;3.95;;
11319;SDS011;5715;48.234;14.320;2023-06-10T06:48:54;5.70;;;4.90;;
11319;SDS011;5715;48.234;14.320;2023-06-10T06:51:42;4.93;;;4.53;;
11319;SDS011;5715;48.234;14.320;2023-06-10T06:54:30;8.68;;;4.95;;
11319;SDS011;5715;48.234;14.320;2023-06-10T06:57:18;7.25;;;5.43;;
11319;SDS011;5715;48.234;14.320;2023-06-10T07:00:06;5.28;;;4.78;;
11319;SDS011;5715;48.234;14.320;2023-06-10T07:02:55;6.10;;;5.60;;
11319;SDS011;5715;48.234;14.320;2023-06-10T07:05:43;5.88;;;5.30;;
11319;SDS011;5715;48.234;14.320;2023-06-10T07:08:31;8.18;;;5.47;;
11319;SDS011;5715;48.234;14.320;2023-06-10T07:11:19;6.78;;;6.18;;
11319;SDS011;5715;48.234;14.320;2023-06-10T07:14:07;5.97;;;5.45;;
11319;SDS011;5715;48.234;14.320;2023-06-10T07:16:54;5.78;;;5.13;;
11319;SDS011;5715;48.234;14.320;2023-06-10T07:19:42;7.20;;;6.60;;
11319;SDS011;5715;48.234;14.320;2023-06-10T07:22:30;9.10;;;8.07;;
11319;SDS011;5715;48.234;14.320;2023-06-10T07:25:18;8.50;;;7.90;;
11319;SDS011;5715;48.234;14.320;2023-06-10T07:28:05;7.97;;;7.38;;
11319;SDS011;5715;48.234;14.320;2023-06-10T07:30:53;7.90;;;7.30;;
11319;SDS011;5715;48.234;14.320;2023-06-10T07:33:40;7.55;;;7.00;;
11319;SDS011;5715;48.234;14.320;2023-06-10T07:36:30;7.57;;;7.00;;
11319;SDS011;5715;48.234;14.320;2023-06-10T07:39:17;7.07;;;6.57;;
11319;SDS011;5715;48.234;14.320;2023-06-10T07:42:05;7.47;;;6.85;;
11319;SDS011;5715;48.234;14.320;2023-06-10T07:44:53;6.03;;;5.53;;
11319;SDS011;5715;48.234;14.320;2023-06-10T07:47:42;5.28;;;4.88;;
11319;SDS011;5715;48.234;14.320;2023-06-10T07:50:30;5.10;;;4.70;;
11319;SDS011;5715;48.234;14.320;2023-06-10T07:53:17;5.03;;;4.60;;
11319;SDS011;5715;48.234;14.320;2023-06-10T07:56:05;4.95;;;4.45;;
11319;SDS011;5715;48.234;14.320;2023-06-10T07:58:53;4.90;;;4.60;;
11319;SDS011;5715;48.234;14.320;2023-06-10T08:01:40;5.68;;;5.22;;
11319;SDS011;5715;48.234;14.320;2023-06-10T08:04:29;5.38;;;4.97;;
11319;SDS011;5715;48.234;14.320;2023-06-10T08:07:18;5.40;;;4.70;;
11319;SDS011;5715;48.234;14.320;2023-06-10T08:10:06;4.95;;;4.55;;
11319;SDS011;5715;48.234;14.320;2023-06-10T08:12:54;5.57;;;5.07;;
11319;SDS011;5715;48.234;14.320;2023-06-10T08:15:42;4.65;;;4.25;;
11319;SDS011;5715;48.234;14.320;2023-06-10T08:18:29;4.32;;;3.92;;
11319;SDS011;5715;48.234;14.320;2023-06-10T08:21:17;4.45;;;4.05;;
11319;SDS011;5715;48.234;14.320;2023-06-10T08:24:05;4.60;;;3.40;;
11319;SDS011;5715;48.234;14.320;2023-06-10T08:26:54;4.43;;;4.03;;
11319;SDS011;5715;48.234;14.320;2023-06-10T08:29:43;3.92;;;3.47;;
11319;SDS011;5715;48.234;14.320;2023-06-10T08:32:31;4.68;;;3.42;;
11319;SDS011;5715;48.234;14.320;2023-06-10T08:35:18;4.32;;;3.63;;
11319;SDS011;5715;48.234;14.320;2023-06-10T08:38:06;4.25;;;3.78;;
11319;SDS011;5715;48.234;14.320;2023-06-10T08:40:55;3.30;;;2.95;;
11319;SDS011;5715;48.234;14.320;2023-06-10T08:47:23;4.93;;;3.97;;
11319;SDS011;5715;48.234;14.320;2023-06-10T08:50:12;5.22;;;3.40;;
11319;SDS011;5715;48.234;14.320;2023-06-10T08:53:01;4.38;;;3.95;;
11319;SDS011;5715;48.234;14.320;2023-06-10T08:55:52;5.70;;;3.17;;
11319;SDS011;5715;48.234;14.320;2023-06-10T08:58:42;3.95;;;3.53;;
11319;SDS011;5715;48.234;14.320;2023-06-10T09:01:31;3.95;;;3.53;;
11319;SDS011;5715;48.234;14.320;2023-06-10T09:04:20;4.15;;;3.60;;
11319;SDS011;5715;48.234;14.320;2023-06-10T09:07:08;4.05;;;3.63;;
11319;SDS011;5715;48.234;14.320;2023-06-10T09:09:57;4.35;;;3.95;;
11319;SDS011;5715;48.234;14.320;2023-06-10T09:12:49;4.22;;;3.83;;
11319;SDS011;5715;48.234;14.320;2023-06-10T09:15:37;4.50;;;3.72;;
11319;SDS011;5715;48.234;14.320;2023-06-10T09:18:27;4.78;;;3.78;;
11319;SDS011;5715;48.234;14.320;2023-06-10T09:21:16;8.45;;;4.40;;
11319;SDS011;5715;48.234;14.320;2023-06-10T09:24:04;6.07;;;3.75;;
11319;SDS011;5715;48.234;14.320;2023-06-10T09:27:14;4.25;;;3.75;;
11319;SDS011;5715;48.234;14.320;2023-06-10T09:30:00;2.85;;;2.60;;
11319;SDS011;5715;48.234;14.320;2023-06-10T09:32:48;3.58;;;3.28;;
11319;SDS011;5715;48.234;14.320;2023-06-10T09:35:36;4.68;;;3.75;;
11319;SDS011;5715;48.234;14.320;2023-06-10T09:38:33;4.28;;;3.38;;
11319;SDS011;5715;48.234;14.320;2023-06-10T09:41:21;4.78;;;3.78;;
11319;SDS011;5715;48.234;14.320;2023-06-10T09:44:19;3.88;;;3.47;;
11319;SDS011;5715;48.234;14.320;2023-06-10T09:47:08;4.07;;;3.47;;
11319;SDS011;5715;48.234;14.320;2023-06-10T09:49:56;5.05;;;3.40;;
11319;SDS011;5715;48.234;14.320;2023-06-10T09:52:43;5.45;;;3.85;;
11319;SDS011;5715;48.234;14.320;2023-06-10T09:55:34;5.18;;;3.78;;
11319;SDS011;5715;48.234;14.320;2023-06-10T09:58:37;5.07;;;3.72;;
11319;SDS011;5715;48.234;14.320;2023-06-10T10:01:29;4.88;;;4.13;;
11319;SDS011;5715;48.234;14.320;2023-06-10T10:04:23;4.13;;;3.58;;
11319;SDS011;5715;48.234;14.320;2023-06-10T10:07:12;4.35;;;3.85;;
11319;SDS011;5715;48.234;14.320;2023-06-10T10:10:00;4.25;;;3.85;;
11319;SDS011;5715;48.234;14.320;2023-06-10T10:12:48;3.80;;;3.47;;
11319;SDS011;5715;48.234;14.320;2023-06-10T10:15:43;4.78;;;3.92;;
11319;SDS011;5715;48.234;14.320;2023-06-10T10:18:33;4.18;;;3.78;;
11319;SDS011;5715;48.234;14.320;2023-06-10T10:21:29;4.20;;;3.80;;
11319;SDS011;5715;48.234;14.320;2023-06-10T10:24:31;4.35;;;3.95;;
11319;SDS011;5715;48.234;14.320;2023-06-10T10:27:36;4.20;;;3.78;;
11319;SDS011;5715;48.234;14.320;2023-06-10T10:30:35;3.95;;;3.55;;
11319;SDS011;5715;48.234;14.320;2023-06-10T10:36:27;4.25;;;3.85;;
11319;SDS011;5715;48.234;14.320;2023-06-10T10:39:15;4.63;;;3.67;;
11319;SDS011;5715;48.234;14.320;2023-06-10T10:42:04;3.63;;;3.33;;
11319;SDS011;5715;48.234;14.320;2023-06-10T10:44:56;4.25;;;3.85;;
11319;SDS011;5715;48.234;14.320;2023-06-10T10:47:45;3.58;;;3.13;;
11319;SDS011;5715;48.234;14.320;2023-06-10T10:50:39;4.90;;;4.40;;
11319;SDS011;5715;48.234;14.320;2023-06-10T10:53:27;4.57;;;3.63;;
11319;SDS011;5715;48.234;14.320;2023-06-10T10:56:15;3.67;;;3.30;;
11319;SDS011;5715;48.234;14.320;2023-06-10T10:59:07;3.75;;;3.35;;
11319;SDS011;5715;48.234;14.320;2023-06-10T11:01:55;6.00;;;3.88;;
11319;SDS011;5715;48.234;14.320;2023-06-10T11:04:48;3.67;;;3.35;;
11319;SDS011;5715;48.234;14.320;2023-06-10T11:07:36;4.25;;;3.22;;
11319;SDS011;5715;48.234;14.320;2023-06-10T11:13:26;3.97;;;3.58;;
11319;SDS011;5715;48.234;14.320;2023-06-10T11:16:14;3.25;;;2.72;;
11319;SDS011;5715;48.234;14.320;2023-06-10T11:19:07;2.65;;;2.33;;
11319;SDS011;5715;48.234;14.320;2023-06-10T11:21:58;4.28;;;2.95;;
11319;SDS011;5715;48.234;14.320;2023-06-10T11:24:52;2.45;;;2.25;;
11319;SDS011;5715;48.234;14.320;2023-06-10T11:27:40;2.47;;;1.98;;
11319;SDS011;5715;48.234;14.320;2023-06-10T11:30:27;3.13;;;2.40;;
11319;SDS011;5715;48.234;14.320;2023-06-10T11:33:22;2.22;;;1.80;;
11319;SDS011;5715;48.234;14.320;2023-06-10T11:36:12;1.45;;;1.35;;
11319;SDS011;5715;48.234;14.320;2023-06-10T11:39:01;2.30;;;1.88;;
11319;SDS011;5715;48.234;14.320;2023-06-10T11:41:52;3.33;;;1.55;;
11319;SDS011;5715;48.234;14.320;2023-06-10T11:44:43;3.83;;;2.20;;
11319;SDS011;5715;48.234;14.320;2023-06-10T11:47:38;2.42;;;2.22;;
11319;SDS011;5715;48.234;14.320;2023-06-10T11:50:32;3.35;;;2.72;;
11319;SDS011;5715;48.234;14.320;2023-06-10T11:53:20;2.75;;;2.55;;
11319;SDS011;5715;48.234;14.320;2023-06-10T11:56:08;3.33;;;3.03;;
11319;SDS011;5715;48.234;14.320;2023-06-10T11:58:56;2.97;;;2.55;;
11319;SDS011;5715;48.234;14.320;2023-06-10T12:01:54;2.65;;;2.35;;
11319;SDS011;5715;48.234;14.320;2023-06-10T12:04:42;3.63;;;2.75;;
11319;SDS011;5715;48.234;14.320;2023-06-10T12:07:29;2.45;;;2.22;;
11319;SDS011;5715;48.234;14.320;2023-06-10T12:10:17;3.25;;;2.35;;
11319;SDS011;5715;48.234;14.320;2023-06-10T12:13:13;3.83;;;3.15;;
11319;SDS011;5715;48.234;14.320;2023-06-10T12:16:07;6.95;;;3.67;;
11319;SDS011;5715;48.234;14.320;2023-06-10T12:19:00;3.33;;;3.05;;
11319;SDS011;5715;48.234;14.320;2023-06-10T12:21:50;6.15;;;5.00;;
11319;SDS011;5715;48.234;14.320;2023-06-10T12:27:54;4.18;;;3.45;;
11319;SDS011;5715;48.234;14.320;2023-06-10T12:30:44;3.03;;;2.72;;
11319;SDS011;5715;48.234;14.320;2023-06-10T12:33:32;4.15;;;3.55;;
11319;SDS011;5715;48.234;14.320;2023-06-10T12:36:20;5.80;;;3.53;;
11319;SDS011;5715;48.234;14.320;2023-06-10T12:39:08;3.95;;;3.13;;
11319;SDS011;5715;48.234;14.320;2023-06-10T12:41:56;5.28;;;3.85;;
11319;SDS011;5715;48.234;14.320;2023-06-10T12:44:45;2.72;;;2.53;;
11319;SDS011;5715;48.234;14.320;2023-06-10T12:47:36;2.53;;;2.05;;
11319;SDS011;5715;48.234;14.320;2023-06-10T12:50:26;2.70;;;2.00;;
11319;SDS011;5715;48.234;14.320;2023-06-10T12:53:13;2.03;;;1.85;;
11319;SDS011;5715;48.234;14.320;2023-06-10T12:56:01;2.00;;;1.80;;
11319;SDS011;5715;48.234;14.320;2023-06-10T12:58:49;2.17;;;1.98;;
11319;SDS011;5715;48.234;14.320;2023-06-10T13:01:37;2.35;;;2.15;;
11319;SDS011;5715;48.234;14.320;2023-06-10T13:04:25;2.78;;;2.08;;
11319;SDS011;5715;48.234;14.320;2023-06-10T13:07:14;4.32;;;1.80;;
11319;SDS011;5715;48.234;14.320;2023-06-10T13:10:02;3.25;;;2.13;;
11319;SDS011;5715;48.234;14.320;2023-06-10T13:12:50;5.85;;;2.58;;
11319;SDS011;5715;48.234;14.320;2023-06-10T13:15:38;2.90;;;2.20;;
11319;SDS011;5715;48.234;14.320;2023-06-10T13:18:29;3.45;;;2.80;;
11319;SDS011;5715;48.234;14.320;2023-06-10T13:21:17;4.50;;;2.60;;
11319;SDS011;5715;48.234;14.320;2023-06-10T13:24:04;2.83;;;2.38;;
11319;SDS011;5715;48.234;14.320;2023-06-10T13:26:53;10.00;;;3.35;;
11319;SDS011;5715;48.234;14.320;2023-06-10T13:29:41;5.05;;;4.53;;
11319;SDS011;5715;48.234;14.320;2023-06-10T13:32:29;6.03;;;5.53;;
11319;SDS011;5715;48.234;14.320;2023-06-10T13:35:17;5.40;;;5.00;;
11319;SDS011;5715;48.234;14.320;2023-06-10T13:38:04;5.53;;;4.57;;
11319;SDS011;5715;48.234;14.320;2023-06-10T13:40:53;4.82;;;4.50;;
11319;SDS011;5715;48.234;14.320;2023-06-10T13:43:41;4.05;;;3.75;;
11319;SDS011;5715;48.234;14.320;2023-06-10T13:46:29;8.60;;;4.05;;
11319;SDS011;5715;48.234;14.320;2023-06-10T13:49:17;4.32;;;3.92;;
11319;SDS011;5715;48.234;14.320;2023-06-10T13:52:04;7.03;;;4.43;;
11319;SDS011;5715;48.234;14.320;2023-06-10T13:54:53;4.75;;;4.35;;
11319;SDS011;5715;48.234;14.320;2023-06-10T13:57:41;5.60;;;4.97;;
11319;SDS011;5715;48.234;14.320;2023-06-10T14:00:28;7.43;;;5.10;;
11319;SDS011;5715;48.234;14.320;2023-06-10T14:03:16;4.78;;;4.38;;
11319;SDS011;5715;48.234;14.320;2023-06-10T14:06:04;4.93;;;4.53;;
11319;SDS011;5715;48.234;14.320;2023-06-10T14:08:51;6.93;;;4.78;;
11319;SDS011;5715;48.234;14.320;2023-06-10T14:11:41;5.93;;;5.43;;
11319;SDS011;5715;48.234;14.320;2023-06-10T14:14:29;8.48;;;4.93;;
11319;SDS011;5715;48.234;14.320;2023-06-10T14:17:18;4.53;;;4.13;;
11319;SDS011;5715;48.234;14.320;2023-06-10T14:20:05;6.57;;;5.20;;
11319;SDS011;5715;48.234;14.320;2023-06-10T14:22:54;5.60;;;4.88;;
11319;SDS011;5715;48.234;14.320;2023-06-10T14:25:41;5.43;;;4.93;;
11319;SDS011;5715;48.234;14.320;2023-06-10T14:28:29;4.63;;;4.22;;
11319;SDS011;5715;48.234;14.320;2023-06-10T14:31:16;10.40;;;4.18;;
11319;SDS011;5715;48.234;14.320;2023-06-10T14:34:04;16.10;;;4.20;;
11319;SDS011;5715;48.234;14.320;2023-06-10T14:36:55;5.10;;;4.30;;
11319;SDS011;5715;48.234;14.320;2023-06-10T14:39:43;3.80;;;3.50;;
11319;SDS011;5715;48.234;14.320;2023-06-10T14:42:30;3.30;;;3.00;;
11319;SDS011;5715;48.234;14.320;2023-06-10T14:45:18;4.57;;;3.00;;
11319;SDS011;5715;48.234;14.320;2023-06-10T14:48:06;2.80;;;2.20;;
11319;SDS011;5715;48.234;14.320;2023-06-10T14:50:54;2.63;;;2.42;;
11319;SDS011;5715;48.234;14.320;2023-06-10T14:53:42;3.67;;;2.90;;
11319;SDS011;5715;48.234;14.320;2023-06-10T14:56:29;3.95;;;2.92;;
11319;SDS011;5715;48.234;14.320;2023-06-10T14:59:17;5.45;;;3.85;;
11319;SDS011;5715;48.234;14.320;2023-06-10T15:02:05;4.38;;;3.97;;
11319;SDS011;5715;48.234;14.320;2023-06-10T15:04:52;3.92;;;3.53;;
11319;SDS011;5715;48.234;14.320;2023-06-10T15:07:40;4.60;;;4.20;;
11319;SDS011;5715;48.234;14.320;2023-06-10T15:10:29;4.18;;;3.88;;
11319;SDS011;5715;48.234;14.320;2023-06-10T15:13:16;6.63;;;3.97;;
11319;SDS011;5715;48.234;14.320;2023-06-10T15:16:04;4.07;;;3.72;;
11319;SDS011;5715;48.234;14.320;2023-06-10T15:18:52;3.97;;;3.67;;
11319;SDS011;5715;48.234;14.320;2023-06-10T15:21:39;4.10;;;3.80;;
11319;SDS011;5715;48.234;14.320;2023-06-10T15:24:27;4.13;;;3.83;;
11319;SDS011;5715;48.234;14.320;2023-06-10T15:27:14;3.55;;;3.25;;
11319;SDS011;5715;48.234;14.320;2023-06-10T15:30:02;4.20;;;3.85;;
11319;SDS011;5715;48.234;14.320;2023-06-10T15:32:51;4.28;;;3.88;;
11319;SDS011;5715;48.234;14.320;2023-06-10T15:35:39;5.57;;;4.53;;
11319;SDS011;5715;48.234;14.320;2023-06-10T15:38:26;4.20;;;3.80;;
11319;SDS011;5715;48.234;14.320;2023-06-10T15:41:14;5.38;;;4.00;;
11319;SDS011;5715;48.234;14.320;2023-06-10T15:44:01;4.40;;;3.97;;
11319;SDS011;5715;48.234;14.320;2023-06-10T15:46:49;4.20;;;3.80;;
11319;SDS011;5715;48.234;14.320;2023-06-10T15:49:37;4.15;;;3.85;;
11319;SDS011;5715;48.234;14.320;2023-06-10T15:52:24;4.30;;;3.90;;
11319;SDS011;5715;48.234;14.320;2023-06-10T15:55:12;4.18;;;3.78;;
11319;SDS011;5715;48.234;14.320;2023-06-10T15:58:00;4.07;;;3.67;;
11319;SDS011;5715;48.234;14.320;2023-06-10T16:00:50;4.22;;;3.83;;
11319;SDS011;5715;48.234;14.320;2023-06-10T16:03:37;4.60;;;4.20;;
11319;SDS011;5715;48.234;14.320;2023-06-10T16:06:25;3.60;;;3.30;;
11319;SDS011;5715;48.234;14.320;2023-06-10T16:09:13;4.32;;;3.92;;
11319;SDS011;5715;48.234;14.320;2023-06-10T16:12:01;4.85;;;4.28;;
11319;SDS011;5715;48.234;14.320;2023-06-10T16:14:49;4.38;;;4.07;;
11319;SDS011;5715;48.234;14.320;2023-06-10T16:17:36;5.25;;;3.78;;
11319;SDS011;5715;48.234;14.320;2023-06-10T16:20:24;4.60;;;4.00;;
11319;SDS011;5715;48.234;14.320;2023-06-10T16:23:12;3.67;;;3.38;;
11319;SDS011;5715;48.234;14.320;2023-06-10T16:26:00;3.60;;;3.03;;
11319;SDS011;5715;48.234;14.320;2023-06-10T16:28:48;14.52;;;3.45;;
11319;SDS011;5715;48.234;14.320;2023-06-10T16:31:35;4.03;;;3.53;;
11319;SDS011;5715;48.234;14.320;2023-06-10T16:34:23;4.28;;;3.50;;
11319;SDS011;5715;48.234;14.320;2023-06-10T16:37:11;3.60;;;3.10;;
11319;SDS011;5715;48.234;14.320;2023-06-10T16:39:58;5.35;;;3.00;;
11319;SDS011;5715;48.234;14.320;2023-06-10T16:42:46;4.25;;;2.92;;
11319;SDS011;5715;48.234;14.320;2023-06-10T16:45:34;3.15;;;2.85;;
11319;SDS011;5715;48.234;14.320;2023-06-10T16:48:22;3.38;;;2.92;;
11319;SDS011;5715;48.234;14.320;2023-06-10T16:51:10;3.67;;;3.38;;
11319;SDS011;5715;48.234;14.320;2023-06-10T16:53:58;6.10;;;4.28;;
11319;SDS011;5715;48.234;14.320;2023-06-10T16:56:45;4.32;;;3.92;;
11319;SDS011;5715;48.234;14.320;2023-06-10T16:59:33;7.85;;;4.60;;
11319;SDS011;5715;48.234;14.320;2023-06-10T17:02:21;6.07;;;4.05;;
11319;SDS011;5715;48.234;14.320;2023-06-10T17:05:08;7.75;;;4.88;;
11319;SDS011;5715;48.234;14.320;2023-06-10T17:07:56;5.85;;;3.47;;
11319;SDS011;5715;48.234;14.320;2023-06-10T17:10:44;5.60;;;4.05;;